Time;durP1;ratioP1;P1;durP2;ratioP2;P2;SDS_P1;SDS_P2;PMS_P1;PMS_P2;Temp;Humidity;BMP_temperature;BMP_pressure;BME280_temperature;BME280_humidity;BME280_pressure;Samples;Min_cycle;Max_cycle;Signal;HPM_P1;HPM_P2
2024/03/23 00:00:11;;;;;;;8.13;7.33;;;7.20;99.90;;;8.00;95.42;97325.53;10385763;28;20632;-69
2024/03/23 00:05:18;;;;;;;7.60;6.87;;;7.10;99.90;;;7.95;95.33;97314.19;10386966;28;20352;-70
2024/03/23 00:10:26;;;;;;;7.30;6.70;;;7.10;99.90;;;7.86;95.85;97299.28;10366494;28;20321;-68
2024/03/23 00:15:34;;;;;;;8.30;6.97;;;7.10;99.90;;;7.84;96.19;97285.63;10386889;28;20325;-69
2024/03/23 00:20:42;;;;;;;8.13;7.40;;;7.10;99.90;;;7.85;96.36;97282.28;10374689;28;20241;-70
2024/03/23 00:25:49;;;;;;;9.00;6.50;;;7.00;99.90;;;7.76;96.07;97274.09;10370121;28;20693;-68
2024/03/23 00:30:57;;;;;;;9.30;8.40;;;6.90;99.90;;;7.74;96.53;97278.22;10384532;28;20320;-68
2024/03/23 00:36:04;;;;;;;9.57;7.57;;;6.90;99.90;;;7.70;96.48;97266.13;10375472;28;20578;-69
2024/03/23 00:41:12;;;;;;;7.03;6.43;;;6.80;99.90;;;7.69;95.15;97254.19;10366293;28;20721;-67
2024/03/23 00:46:19;;;;;;;7.47;6.87;;;6.70;99.90;;;7.55;96.07;97253.38;10367387;28;20327;-66
2024/03/23 00:51:27;;;;;;;8.53;7.60;;;6.70;99.90;;;7.48;96.29;97243.63;10369348;28;20314;-69
2024/03/23 00:56:29;;;;;;;8.97;8.13;;;6.60;99.90;;;7.39;96.59;97235.47;10370415;28;20320;-69
2024/03/23 01:01:31;;;;;;;7.67;7.07;;;6.60;99.90;;;7.42;96.46;97240.75;10401030;22;20315;-68
2024/03/23 01:06:34;;;;;;;7.10;6.40;;;6.50;99.90;;;7.36;95.85;97222.59;10506601;28;20315;-68
2024/03/23 01:11:36;;;;;;;18.17;14.40;;;6.40;99.90;;;7.17;96.92;97218.94;10505777;28;20342;-68
2024/03/23 01:16:38;;;;;;;9.03;8.07;;;6.30;99.90;;;7.10;98.06;97214.28;10505069;28;20318;-68
2024/03/23 01:21:43;;;;;;;8.50;7.90;;;6.30;99.90;;;7.00;99.08;97201.81;10506851;28;20342;-67
2024/03/23 01:26:45;;;;;;;9.87;8.33;;;6.30;99.90;;;7.04;99.42;97192.69;10505364;28;20318;-68
2024/03/23 01:31:47;;;;;;;8.93;8.13;;;6.30;99.90;;;7.14;99.62;97188.25;10504080;28;20327;-68
2024/03/23 01:36:50;;;;;;;9.53;8.53;;;6.40;99.90;;;7.19;99.64;97186.88;10504768;28;20318;-68
2024/03/23 01:41:52;;;;;;;7.70;7.10;;;6.40;99.90;;;7.29;98.46;97177.25;10506135;28;20319;-68
2024/03/23 01:46:55;;;;;;;13.87;10.37;;;6.30;99.90;;;7.10;97.96;97171.09;10502969;28;20485;-68
2024/03/23 01:51:59;;;;;;;7.53;6.87;;;6.20;99.90;;;6.96;98.49;97154.16;10509804;28;20322;-68
2024/03/23 01:57:01;;;;;;;7.67;7.07;;;6.20;99.90;;;6.99;98.21;97144.19;10503661;28;20331;-68
2024/03/23 02:02:03;;;;;;;8.23;7.30;;;6.20;99.90;;;7.00;99.76;97134.09;10502881;28;20708;-69
2024/03/23 02:07:08;;;;;;;9.33;8.53;;;6.30;99.90;;;7.27;99.05;97135.59;10504681;28;20330;-68
2024/03/23 02:12:10;;;;;;;9.57;8.30;;;6.40;99.90;;;7.19;98.69;97135.19;10493080;28;20650;-69
2024/03/23 02:17:13;;;;;;;10.80;9.80;;;6.30;99.90;;;7.19;99.73;97118.25;10520279;28;20315;-68
2024/03/23 02:22:17;;;;;;;10.73;9.23;;;6.50;99.90;;;7.37;100.00;97117.56;10500803;28;20322;-68
2024/03/23 02:27:20;;;;;;;10.33;8.30;;;6.60;99.90;;;7.39;98.84;97110.91;10502883;28;20311;-68
2024/03/23 02:32:22;;;;;;;10.40;8.03;;;6.50;99.90;;;7.25;98.80;97094.88;10498023;28;20447;-66
2024/03/23 02:37:24;;;;;;;10.93;9.80;;;6.40;99.90;;;7.12;99.53;97079.69;10503794;28;20374;-66
2024/03/23 02:42:28;;;;;;;9.53;8.63;;;6.30;99.90;;;7.11;100.00;97078.81;10503908;28;20679;-66
2024/03/23 02:47:30;;;;;;;8.77;7.87;;;6.30;99.90;;;7.09;100.00;97077.84;10500653;28;20310;-68
2024/03/23 02:52:32;;;;;;;10.40;8.40;;;6.30;99.90;;;7.15;100.00;97082.41;10502783;28;20322;-68
2024/03/23 02:57:35;;;;;;;8.00;7.30;;;6.40;99.90;;;7.27;99.12;97084.78;10500143;28;20310;-68
2024/03/23 03:02:38;;;;;;;8.77;7.87;;;6.40;99.90;;;7.14;99.48;97076.47;10518835;28;20772;-66
2024/03/23 03:07:40;;;;;;;8.30;7.50;;;6.30;99.90;;;7.15;99.27;97074.78;10518033;28;20771;-66
2024/03/23 03:12:44;;;;;;;8.37;7.57;;;6.30;99.90;;;7.12;99.51;97070.41;10502757;28;20680;-66
2024/03/23 03:17:46;;;;;;;8.60;7.90;;;6.30;99.90;;;7.13;99.36;97066.22;10499589;28;22319;-66
2024/03/23 03:22:48;;;;;;;8.40;7.60;;;6.20;99.90;;;6.94;99.07;97059.19;10498242;28;20247;-67
2024/03/23 03:27:52;;;;;;;8.33;7.53;;;6.10;99.90;;;6.91;100.00;97048.84;10500580;28;20310;-67
2024/03/23 03:32:55;;;;;;;8.07;7.37;;;6.10;99.90;;;6.83;100.00;97034.84;10509061;28;20330;-66
2024/03/23 03:37:57;;;;;;;7.63;7.00;;;6.00;99.90;;;6.87;100.00;97035.13;10513319;28;20357;-66
2024/03/23 03:43:00;;;;;;;8.77;7.97;;;6.20;99.90;;;6.91;100.00;97034.50;10515633;28;20341;-66
2024/03/23 03:48:03;;;;;;;9.80;7.93;;;6.30;99.90;;;7.08;100.00;97025.28;10511247;28;20297;-68
2024/03/23 03:53:05;;;;;;;25.90;13.53;;;6.40;99.90;;;7.10;100.00;97018.66;10511164;28;20668;-66
2024/03/23 03:58:08;;;;;;;13.13;10.33;;;6.30;99.90;;;7.02;99.13;97009.69;10517470;28;20314;-66
2024/03/23 04:03:11;;;;;;;21.67;15.07;;;6.10;99.90;;;6.82;100.00;97003.50;10511131;28;20314;-66
2024/03/23 04:08:13;;;;;;;11.93;8.90;;;6.00;99.90;;;6.70;100.00;96987.56;10510350;28;20314;-68
2024/03/23 04:13:16;;;;;;;7.93;7.13;;;5.90;99.90;;;6.63;100.00;96973.59;10511011;28;20346;-68
2024/03/23 04:18:18;;;;;;;8.00;7.30;;;5.90;99.90;;;6.75;100.00;96959.09;10510898;28;20318;-66
2024/03/23 04:23:21;;;;;;;7.03;6.50;;;6.00;99.90;;;6.74;100.00;96939.56;10513362;28;20318;-66
2024/03/23 04:28:24;;;;;;;7.43;6.70;;;6.00;99.90;;;6.77;100.00;96918.53;10513835;28;20314;-66
2024/03/23 04:33:26;;;;;;;7.03;6.43;;;6.10;99.90;;;6.92;100.00;96918.50;10520750;27;20322;-66
2024/03/23 04:38:29;;;;;;;7.13;6.53;;;6.30;99.90;;;7.18;100.00;96892.00;10522431;27;20340;-66
2024/03/23 04:43:32;;;;;;;7.33;6.63;;;6.60;99.90;;;7.49;100.00;96883.47;10508075;28;20350;-66
2024/03/23 04:48:34;;;;;;;6.27;5.77;;;7.00;99.90;;;7.74;100.00;96872.94;10504530;28;20303;-68
2024/03/23 04:53:36;;;;;;;6.20;5.60;;;7.20;99.90;;;8.09;100.00;96874.72;10504966;28;20777;-66
2024/03/23 04:58:40;;;;;;;6.27;5.67;;;7.40;99.90;;;8.03;98.54;96889.69;10498409;28;20802;-68
2024/03/23 05:03:42;;;;;;;5.43;5.00;;;7.10;99.90;;;7.71;100.00;96890.56;10512190;28;20318;-68
2024/03/23 05:08:44;;;;;;;6.77;6.17;;;7.00;99.90;;;7.91;100.00;96951.00;10493982;28;20872;-68
2024/03/23 05:13:48;;;;;;;6.70;5.53;;;7.40;99.90;;;8.38;100.00;96919.44;10511038;28;20310;-68
2024/03/23 05:18:50;;;;;;;6.17;5.67;;;7.80;99.90;;;8.96;100.00;96927.44;10491785;28;20227;-68
2024/03/23 05:23:52;;;;;;;7.60;6.87;;;8.40;99.90;;;9.40;98.83;96945.63;10489506;28;20323;-68
2024/03/23 05:28:55;;;;;;;13.57;11.03;;;8.80;99.90;;;9.84;100.00;96980.88;10494049;28;20314;-68
2024/03/23 05:33:58;;;;;;;15.97;14.33;;;9.40;99.90;;;9.97;100.00;96978.84;10494006;28;20785;-66
2024/03/23 05:39:00;;;;;;;18.87;16.67;;;9.50;99.90;;;9.92;100.00;96969.31;10493343;28;20342;-68
2024/03/23 05:44:04;;;;;;;21.60;17.70;;;9.60;99.90;;;9.94;100.00;96992.34;10491974;28;20331;-67
2024/03/23 05:49:06;;;;;;;18.73;16.60;;;9.50;99.90;;;9.89;100.00;96987.03;10492783;28;20303;-68
2024/03/23 05:54:08;;;;;;;21.37;18.43;;;9.50;99.90;;;9.75;100.00;96990.63;10491479;28;20656;-69
2024/03/23 05:59:12;;;;;;;23.83;19.73;;;9.40;99.90;;;9.70;100.00;96997.22;10492837;28;20318;-68
2024/03/23 06:04:14;;;;;;;23.27;19.20;;;9.30;99.90;;;9.66;100.00;97010.63;10494385;28;20656;-68
2024/03/23 06:09:16;;;;;;;22.57;19.53;;;9.20;99.90;;;9.75;100.00;97016.16;10495257;28;20308;-68
2024/03/23 06:14:20;;;;;;;22.97;17.93;;;9.30;99.90;;;9.64;100.00;97030.09;10491223;28;20339;-68
2024/03/23 06:19:23;;;;;;;17.73;15.67;;;9.20;99.90;;;9.66;100.00;97025.94;10494011;28;20347;-68
2024/03/23 06:24:25;;;;;;;14.97;12.80;;;9.20;99.90;;;9.60;100.00;97035.84;10492203;28;20241;-68
2024/03/23 06:29:28;;;;;;;13.20;9.63;;;9.10;99.90;;;9.64;100.00;97036.09;10489348;28;20785;-68
2024/03/23 06:34:30;;;;;;;10.40;8.87;;;9.00;99.90;;;9.27;100.00;97058.94;10486635;28;20306;-68
2024/03/23 06:39:33;;;;;;;9.90;8.60;;;8.90;99.90;;;9.22;100.00;97074.00;10480991;28;20234;-68
2024/03/23 06:44:36;;;;;;;9.87;8.20;;;8.80;99.90;;;9.31;100.00;97077.81;10478573;28;20224;-68
2024/03/23 06:49:38;;;;;;;7.97;6.93;;;8.80;99.90;;;9.45;100.00;97094.66;10480112;28;20300;-68
2024/03/23 06:54:40;;;;;;;7.93;7.13;;;8.90;99.90;;;9.37;100.00;97080.66;10470510;28;20418;-69
2024/03/23 06:59:44;;;;;;;8.97;7.27;;;8.80;99.90;;;9.38;100.00;97110.47;10484240;28;20709;-69
2024/03/23 07:04:46;;;;;;;7.33;6.60;;;8.90;99.90;;;9.36;100.00;97128.25;10489391;28;20223;-69
2024/03/23 07:09:48;;;;;;;6.10;5.50;;;8.80;99.90;;;9.52;100.00;97149.41;10474084;22;20231;-65
2024/03/23 07:14:51;;;;;;;5.40;4.90;;;8.90;99.90;;;9.54;100.00;97163.13;10460254;28;20584;-65
2024/03/23 07:19:54;;;;;;;4.90;4.13;;;9.00;99.90;;;9.46;100.00;97166.16;10417801;28;20951;-64
2024/03/23 07:24:56;;;;;;;3.70;3.40;;;9.00;99.90;;;9.55;100.00;97170.81;10408614;28;20325;-66
2024/03/23 07:30:00;;;;;;;3.13;2.87;;;9.00;99.90;;;9.46;100.00;97171.25;10411780;28;20370;-65
2024/03/23 07:35:04;;;;;;;2.63;2.43;;;9.10;99.90;;;9.67;100.00;97185.88;10427286;28;20316;-65
2024/03/23 07:40:07;;;;;;;2.40;2.20;;;9.30;99.90;;;9.88;100.00;97173.31;10422141;28;20323;-67
2024/03/23 07:45:11;;;;;;;2.50;2.40;;;9.40;99.90;;;9.98;100.00;97179.72;10418484;28;20324;-65
2024/03/23 07:50:14;;;;;;;2.50;2.20;;;9.50;99.90;;;10.22;98.18;97188.56;10415450;28;20239;-66
2024/03/23 07:55:16;;;;;;;1.90;1.80;;;9.80;99.90;;;10.23;97.62;97195.41;10418001;28;20300;-66
2024/03/23 08:00:20;;;;;;;1.63;1.53;;;9.80;99.90;;;10.43;95.35;97204.03;10433149;28;20308;-66
2024/03/23 08:05:22;;;;;;;2.13;1.98;;;9.90;99.90;;;10.53;95.12;97203.69;10434659;28;20795;-68
2024/03/23 08:10:24;;;;;;;1.83;1.80;;;10.00;99.90;;;10.49;93.13;97219.66;10409923;28;20308;-66
2024/03/23 08:15:28;;;;;;;2.20;2.10;;;10.00;99.90;;;10.23;93.03;97249.03;10427919;28;20233;-65
2024/03/23 08:20:30;;;;;;;2.00;1.90;;;9.70;99.90;;;10.19;93.99;97262.47;10432649;28;20329;-66
2024/03/23 08:25:32;;;;;;;2.00;1.90;;;9.70;99.90;;;10.15;93.42;97293.75;10434779;28;20702;-66
2024/03/23 08:30:36;;;;;;;2.10;1.90;;;9.40;99.90;;;9.96;93.53;97291.97;10430810;28;20305;-67
2024/03/23 08:35:40;;;;;;;1.97;1.87;;;9.30;99.90;;;9.78;96.52;97312.31;10423866;28;20320;-65
2024/03/23 08:40:42;;;;;;;2.00;1.90;;;9.10;99.90;;;9.31;99.67;97320.94;10426472;28;20395;-65
2024/03/23 08:45:46;;;;;;;2.40;2.30;;;8.90;99.90;;;9.16;100.00;97349.06;10433458;28;20670;-67
2024/03/23 08:50:48;;;;;;;2.73;2.60;;;8.70;99.90;;;8.89;100.00;97384.09;10438639;28;20751;-65
2024/03/23 08:55:54;;;;;;;2.10;2.00;;;8.40;99.90;;;8.33;98.46;97399.56;10442950;28;20354;-66
2024/03/23 09:01:07;;;;;;;2.30;2.20;;;8.00;99.90;;;8.36;100.00;97409.94;10439196;28;20341;-65
2024/03/23 09:06:11;;;;;;;2.00;1.90;;;7.90;99.90;;;8.44;100.00;97449.50;10451602;28;20293;-65
2024/03/23 09:11:14;;;;;;;1.80;1.70;;;7.90;99.90;;;8.63;100.00;97455.63;10438879;28;20241;-65
2024/03/23 09:16:17;;;;;;;2.40;2.30;;;8.20;99.90;;;8.87;100.00;97435.75;10436582;28;20256;-66
2024/03/23 09:21:19;;;;;;;2.20;2.10;;;8.50;99.90;;;9.19;100.00;97455.44;10435663;28;20643;-66
2024/03/23 09:26:22;;;;;;;2.57;2.37;;;8.80;99.90;;;9.41;96.74;97452.38;10439593;28;20316;-66
2024/03/23 09:31:25;;;;;;;3.10;2.80;;;9.10;99.90;;;9.80;91.66;97448.56;10419684;28;20344;-66
2024/03/23 09:36:27;;;;;;;5.07;3.57;;;9.40;99.90;;;9.57;92.61;97459.22;10419066;28;20323;-65
2024/03/23 09:41:29;;;;;;;3.13;2.80;;;9.30;99.90;;;9.93;89.02;97450.97;10418306;28;20278;-66
2024/03/23 09:46:34;;;;;;;4.47;2.80;;;9.40;99.90;;;9.92;92.25;97448.31;10426943;28;22510;-64
2024/03/23 09:51:37;;;;;;;4.97;3.20;;;9.60;99.90;;;9.97;92.36;97446.91;10421772;28;20316;-66
2024/03/23 09:56:39;;;;;;;2.90;2.50;;;9.50;99.90;;;10.15;90.53;97459.75;10423781;28;20316;-66
2024/03/23 10:01:43;;;;;;;4.93;2.83;;;9.70;99.90;;;10.43;87.33;97453.53;10414159;28;20324;-66
2024/03/23 10:06:46;;;;;;;5.00;3.03;;;10.00;99.90;;;10.88;82.18;97436.19;10440557;28;20268;-65
2024/03/23 10:11:50;;;;;;;7.10;3.58;;;10.50;99.90;;;11.25;75.64;97462.72;10418392;28;20320;-65
2024/03/23 10:16:54;;;;;;;5.72;3.80;;;11.00;99.90;;;11.34;72.37;97451.19;10418157;28;20312;-66
2024/03/23 10:21:57;;;;;;;6.78;3.90;;;11.10;99.90;;;11.58;71.44;97442.09;10424544;28;20362;-66
2024/03/23 10:26:59;;;;;;;5.97;3.78;;;11.30;99.90;;;11.79;68.30;97443.88;10422385;28;20368;-66
2024/03/23 10:32:13;;;;;;;4.25;3.80;;;11.50;99.90;;;11.69;66.16;97440.03;10409574;28;20327;-65
2024/03/23 10:37:16;;;;;;;6.00;3.50;;;11.40;99.90;;;11.91;65.01;97457.28;10433138;28;20636;-65
2024/03/23 10:42:19;;;;;;;6.25;3.60;;;11.50;99.90;;;11.66;66.50;97453.56;10421644;28;20324;-66
2024/03/23 10:47:22;;;;;;;6.00;3.58;;;11.10;99.90;;;11.65;68.42;97454.38;10409724;28;20290;-65
2024/03/23 10:52:25;;;;;;;6.57;3.80;;;10.90;99.90;;;11.48;65.84;97460.41;10411483;28;20892;-66
2024/03/23 10:57:32;;;;;;;7.28;3.42;;;10.70;99.90;;;11.41;67.41;97459.22;10422693;28;20319;-66
2024/03/23 11:02:36;;;;;;;4.95;3.13;;;10.60;99.90;;;11.73;65.44;97442.81;10427639;28;20651;-66
2024/03/23 11:07:38;;;;;;;4.93;4.00;;;11.00;99.90;;;11.55;61.72;97436.81;10419481;28;20335;-66
2024/03/23 11:12:40;;;;;;;5.35;3.65;;;10.80;99.90;;;11.09;64.53;97450.00;10429171;28;20915;-66
2024/03/23 11:18:04;;;;;;;21.92;14.90;;;10.40;99.90;;;10.18;72.60;97472.66;10413930;28;20364;-66
2024/03/23 11:23:07;;;;;;;6.83;5.10;;;9.60;99.90;;;9.58;78.79;97492.44;10409451;28;20372;-66
2024/03/23 11:28:13;;;;;;;6.40;4.80;;;9.00;99.90;;;9.07;84.40;97556.69;10431209;28;20324;-66
2024/03/23 11:33:17;;;;;;;7.57;4.90;;;8.50;99.90;;;8.26;88.60;97596.03;10431024;28;20331;-66
2024/03/23 11:38:20;;;;;;;6.83;5.90;;;7.60;99.90;;;7.41;94.27;97602.53;10416701;28;20707;-67
2024/03/23 11:43:23;;;;;;;11.77;7.20;;;7.00;99.90;;;7.27;100.00;97588.03;10412516;28;20319;-68
2024/03/23 11:48:27;;;;;;;9.83;6.50;;;6.80;99.90;;;7.53;100.00;97588.09;10431822;28;20312;-66
2024/03/23 11:53:30;;;;;;;7.67;6.30;;;7.00;99.90;;;7.48;100.00;97528.41;10417987;28;20677;-66
2024/03/23 11:58:32;;;;;;;7.87;6.33;;;6.90;99.90;;;7.67;100.00;97536.44;10419671;28;20224;-65
2024/03/23 12:03:36;;;;;;;9.30;6.07;;;7.10;99.90;;;7.86;100.00;97545.19;10420052;28;20324;-66
2024/03/23 12:08:38;;;;;;;10.67;6.93;;;7.20;99.90;;;7.90;100.00;97537.88;10437750;28;20320;-65
2024/03/23 12:13:43;;;;;;;12.90;7.03;;;7.30;99.90;;;7.89;100.00;97532.66;10439270;28;20413;-65
2024/03/23 12:18:50;;;;;;;10.00;6.30;;;7.30;99.90;;;8.19;100.00;97542.97;10426703;28;20803;-65
2024/03/23 12:23:53;;;;;;;7.43;5.77;;;7.50;99.90;;;8.36;100.00;97534.69;10438769;28;20662;-66
2024/03/23 12:28:55;;;;;;;6.40;5.77;;;7.60;99.90;;;8.52;100.00;97539.06;10417460;28;20335;-67
2024/03/23 12:33:58;;;;;;;6.43;4.73;;;7.70;99.90;;;8.49;100.00;97543.97;10409990;28;20229;-66
2024/03/23 12:39:00;;;;;;;5.67;4.80;;;7.80;99.90;;;8.41;100.00;97540.94;10414298;28;20233;-68
2024/03/23 12:44:02;;;;;;;6.20;5.07;;;7.70;99.90;;;8.51;100.00;97533.09;10432438;28;20243;-68
2024/03/23 12:49:06;;;;;;;7.00;5.43;;;7.70;99.90;;;8.45;100.00;97537.81;10428824;28;20894;-66
2024/03/23 12:54:09;;;;;;;4.40;3.50;;;7.70;99.90;;;8.53;100.00;97541.72;10409957;28;20308;-66
2024/03/23 12:59:11;;;;;;;4.80;3.70;;;7.90;99.90;;;8.52;100.00;97528.88;10412300;28;20237;-66
2024/03/23 13:04:15;;;;;;;6.93;4.03;;;7.80;99.90;;;8.66;100.00;97530.56;10415479;28;20575;-65
2024/03/23 13:09:17;;;;;;;4.83;3.80;;;7.90;99.90;;;8.63;96.95;97524.41;10431794;28;20237;-65
2024/03/23 13:14:19;;;;;;;5.23;3.77;;;8.00;99.90;;;8.60;97.91;97516.59;10423715;22;20316;-66
2024/03/23 13:19:26;;;;;;;4.07;3.60;;;7.90;99.90;;;8.75;98.99;97497.09;10421783;28;20312;-66
2024/03/23 13:24:29;;;;;;;5.23;3.83;;;8.00;99.90;;;8.84;99.64;97486.56;10414209;28;20451;-65
2024/03/23 13:29:31;;;;;;;3.93;2.90;;;8.10;99.90;;;8.88;99.65;97480.88;10381503;28;20309;-66
2024/03/23 13:34:35;;;;;;;4.60;3.57;;;8.10;99.90;;;8.65;99.16;97464.25;10375305;28;20598;-66
2024/03/23 13:39:37;;;;;;;4.83;3.47;;;8.00;99.90;;;8.75;100.00;97469.06;10372921;28;20239;-65
2024/03/23 13:44:39;;;;;;;5.53;3.70;;;8.10;99.90;;;8.93;100.00;97439.56;10373683;28;20332;-66
2024/03/23 13:49:42;;;;;;;6.07;3.80;;;8.40;99.90;;;9.16;93.88;97434.88;10373109;28;20300;-65
2024/03/23 13:54:46;;;;;;;5.17;3.30;;;8.60;99.90;;;8.88;88.28;97443.50;10381754;28;20812;-65
2024/03/23 13:59:48;;;;;;;7.37;3.83;;;8.40;99.90;;;8.63;90.93;97423.41;10374637;28;20221;-64
2024/03/23 14:04:52;;;;;;;6.33;3.97;;;8.50;99.90;;;8.84;90.79;97408.44;10368779;28;20234;-65
2024/03/23 14:09:55;;;;;;;6.63;3.60;;;8.50;99.90;;;8.82;88.55;97389.66;10369065;28;20222;-64
2024/03/23 14:14:57;;;;;;;5.03;3.77;;;8.60;99.90;;;8.77;86.71;97394.47;10374138;28;20652;-65
2024/03/23 14:20:01;;;;;;;6.87;3.73;;;8.60;99.90;;;8.94;86.31;97389.47;10369662;28;20316;-64
2024/03/23 14:25:05;;;;;;;4.77;3.43;;;8.80;99.90;;;9.01;82.62;97374.59;10381313;28;20226;-64
2024/03/23 14:30:09;;;;;;;3.17;2.87;;;8.80;99.90;;;9.14;80.12;97365.94;10372454;28;20306;-63
2024/03/23 14:35:12;;;;;;;4.27;2.50;;;8.80;99.90;;;8.98;73.96;97438.13;10375003;28;20324;-63
2024/03/23 14:40:15;;;;;;;4.00;2.30;;;8.70;99.90;;;8.31;80.61;97477.53;10364213;28;20226;-65
2024/03/23 14:45:17;;;;;;;5.13;2.70;;;8.00;99.90;;;7.78;85.17;97492.94;10372116;28;20549;-65
2024/03/23 14:50:21;;;;;;;6.30;3.30;;;7.30;99.90;;;7.61;90.51;97500.44;10388476;28;20741;-65
2024/03/23 14:55:23;;;;;;;4.57;2.70;;;7.00;99.90;;;7.02;94.07;97499.19;10400543;28;20801;-66
2024/03/23 15:00:25;;;;;;;3.17;2.50;;;6.60;99.90;;;6.46;98.15;97499.72;10390109;28;20672;-65
2024/03/23 15:05:29;;;;;;;4.23;2.60;;;6.00;99.90;;;6.56;100.00;97475.84;10388494;28;20376;-65
2024/03/23 15:10:33;;;;;;;2.70;2.57;;;6.10;99.90;;;6.77;100.00;97470.50;10383882;28;20305;-65
2024/03/23 15:15:40;;;;;;;2.73;2.30;;;6.40;99.90;;;7.03;100.00;97465.34;10371187;28;20517;-65
2024/03/23 15:20:53;;;;;;;2.60;2.23;;;6.60;99.90;;;7.32;100.00;97474.84;10370680;28;20637;-65
2024/03/23 15:25:56;;;;;;;3.80;2.40;;;6.70;99.90;;;7.11;99.78;97482.84;10367674;28;20237;-65
2024/03/23 15:31:00;;;;;;;5.07;3.17;;;6.60;99.90;;;7.07;100.00;97477.47;10393334;28;20352;-65
2024/03/23 15:36:04;;;;;;;3.93;3.53;;;6.50;99.90;;;7.16;100.00;97471.31;10376997;28;20364;-65
2024/03/23 15:41:07;;;;;;;4.53;2.80;;;6.60;99.90;;;7.38;99.63;97453.25;10397272;28;20316;-65
2024/03/23 15:46:10;;;;;;;3.27;2.80;;;7.00;99.90;;;7.50;97.08;97448.03;10376736;28;20320;-65
2024/03/23 15:51:14;;;;;;;4.53;2.60;;;7.10;99.90;;;7.73;94.58;97429.09;10378450;28;20316;-65
2024/03/23 15:56:16;;;;;;;3.77;2.63;;;7.20;99.90;;;7.67;96.92;97428.72;10363027;28;20344;-65
2024/03/23 16:01:19;;;;;;;3.20;2.73;;;7.20;99.90;;;7.79;93.54;97423.50;10361788;28;20241;-65
2024/03/23 16:06:22;;;;;;;3.77;2.53;;;7.30;99.90;;;7.80;89.92;97420.16;10359548;28;20646;-65
2024/03/23 16:11:24;;;;;;;2.47;2.00;;;7.30;99.90;;;7.75;86.75;97421.53;10374052;28;20228;-65
2024/03/23 16:16:26;;;;;;;2.83;2.37;;;7.20;99.90;;;7.53;91.78;97437.19;10378311;28;20249;-64
2024/03/23 16:21:30;;;;;;;2.90;2.43;;;7.10;99.90;;;7.59;93.12;97429.91;10378724;28;20581;-65
2024/03/23 16:26:33;;;;;;;2.30;2.10;;;7.10;99.90;;;7.76;92.02;97413.16;10391033;28;20301;-64
2024/03/23 16:31:35;;;;;;;4.77;2.40;;;7.20;99.90;;;7.64;88.22;97401.44;10381560;28;20324;-64
2024/03/23 16:36:38;;;;;;;3.13;2.63;;;7.10;99.90;;;7.63;90.12;97394.56;10378318;28;20663;-64
2024/03/23 16:41:41;;;;;;;3.30;2.77;;;7.10;99.90;;;7.63;89.51;97407.28;10371066;28;20236;-64
2024/03/23 16:46:44;;;;;;;2.93;2.77;;;7.00;99.90;;;7.61;91.48;97413.97;10369777;28;21452;-64
2024/03/23 16:51:49;;;;;;;4.17;2.80;;;7.00;99.90;;;7.67;86.00;97406.72;10367845;28;20229;-64
2024/03/23 16:56:51;;;;;;;1.90;1.80;;;7.00;99.90;;;7.74;82.30;97410.50;10371247;28;20226;-65
2024/03/23 17:01:53;;;;;;;1.93;1.83;;;7.10;99.90;;;7.64;79.43;97403.97;10385099;28;20704;-65
2024/03/23 17:06:56;;;;;;;3.07;1.90;;;6.90;99.90;;;7.50;80.83;97414.06;10378267;28;20304;-66
2024/03/23 17:11:59;;;;;;;3.53;2.20;;;6.90;99.90;;;7.59;80.30;97410.44;10373640;28;20222;-64
2024/03/23 17:17:01;;;;;;;2.00;1.80;;;7.00;99.90;;;7.51;82.58;97403.13;10372161;28;20321;-64
2024/03/23 17:22:05;;;;;;;3.67;2.50;;;7.00;99.90;;;7.50;83.96;97420.06;10378065;28;20314;-64
2024/03/23 17:27:09;;;;;;;2.27;2.17;;;6.90;99.90;;;7.39;84.89;97452.44;10372182;28;20241;-66
2024/03/23 17:32:11;;;;;;;3.97;2.77;;;6.80;99.90;;;6.61;87.95;97460.16;10393847;28;20340;-65
2024/03/23 17:37:14;;;;;;;3.33;2.70;;;6.20;99.90;;;5.96;92.55;97461.69;10376607;28;20238;-65
2024/03/23 17:42:17;;;;;;;3.30;3.10;;;5.50;99.90;;;5.71;97.59;97472.66;10385714;28;20312;-66
2024/03/23 17:47:19;;;;;;;3.80;3.30;;;5.20;99.90;;;5.55;99.83;97479.94;10385256;28;20233;-66
2024/03/23 17:52:22;;;;;;;4.00;3.70;;;5.10;99.90;;;5.66;100.00;97484.13;10387626;28;20788;-65
2024/03/23 17:57:25;;;;;;;2.97;2.70;;;5.20;99.90;;;5.74;100.00;97485.53;10364361;28;20239;-66
2024/03/23 18:02:27;;;;;;;4.10;3.70;;;5.20;99.90;;;5.88;100.00;97491.56;10362475;28;20240;-66
2024/03/23 18:07:31;;;;;;;5.60;4.63;;;5.30;99.90;;;5.94;100.00;97486.06;10365954;28;20317;-65
2024/03/23 18:12:33;;;;;;;9.67;8.67;;;5.40;99.90;;;5.74;100.00;97492.25;10380717;28;20225;-65
2024/03/23 18:17:35;;;;;;;7.57;6.73;;;5.30;99.90;;;5.65;100.00;97507.72;10372688;28;20229;-65
2024/03/23 18:22:39;;;;;;;3.87;3.20;;;5.20;99.90;;;5.39;100.00;97529.56;10369407;28;20237;-65
2024/03/23 18:27:41;;;;;;;3.37;3.07;;;5.00;99.90;;;5.52;100.00;97561.75;10378656;28;20230;-65
2024/03/23 18:32:43;;;;;;;4.23;3.83;;;5.00;99.90;;;4.79;100.00;97554.72;10383389;28;20237;-65
2024/03/23 18:37:46;;;;;;;26.93;20.03;;;4.30;99.90;;;4.44;100.00;97520.09;10365982;28;20233;-65
2024/03/23 18:42:48;;;;;;;50.27;28.97;;;3.70;99.90;;;4.08;100.00;97508.06;10386384;28;21330;-65
2024/03/23 18:47:50;;;;;;;16.27;10.50;;;3.50;99.90;;;4.21;100.00;97507.38;10365399;28;20232;-66
2024/03/23 18:52:54;;;;;;;2.90;2.70;;;3.60;99.90;;;4.39;100.00;97510.41;10381071;28;20241;-65
2024/03/23 18:57:58;;;;;;;6.40;5.90;;;3.70;99.90;;;4.49;100.00;97502.72;10361444;28;20238;-65
2024/03/23 19:03:00;;;;;;;3.30;2.77;;;3.80;99.90;;;4.45;100.00;97499.06;10384417;28;20228;-65
2024/03/23 19:08:05;;;;;;;2.97;2.87;;;3.90;99.90;;;4.51;100.00;97498.66;10379351;28;20765;-68
2024/03/23 19:13:07;;;;;;;3.60;3.30;;;3.90;99.90;;;4.46;100.00;97487.31;10363469;28;20568;-65
2024/03/23 19:18:09;;;;;;;4.07;3.30;;;3.90;99.90;;;4.59;100.00;97479.84;10373513;28;20987;-67
2024/03/23 19:23:13;;;;;;;3.50;3.10;;;3.90;99.90;;;4.64;100.00;97475.16;10362966;28;20271;-67
2024/03/23 19:28:15;;;;;;;3.20;3.00;;;3.90;99.90;;;4.55;100.00;97484.56;10378098;28;20711;-66
2024/03/23 19:33:17;;;;;;;2.90;2.70;;;3.90;99.90;;;4.45;100.00;97483.91;10362723;28;20619;-66
2024/03/23 19:38:21;;;;;;;5.00;4.60;;;3.90;99.90;;;4.40;100.00;97490.25;10360878;28;20688;-66
2024/03/23 19:43:23;;;;;;;4.60;4.20;;;3.90;99.90;;;4.37;100.00;97490.03;10364477;28;20607;-65
2024/03/23 19:48:25;;;;;;;5.07;4.67;;;3.80;99.90;;;4.39;100.00;97482.56;10384702;28;20227;-65
2024/03/23 19:53:28;;;;;;;4.97;4.57;;;3.80;99.90;;;4.34;100.00;97473.75;10380363;28;20230;-65
2024/03/23 19:58:31;;;;;;;11.80;10.70;;;3.70;99.90;;;4.45;100.00;97462.78;10367410;28;20228;-65
2024/03/23 20:03:33;;;;;;;6.17;5.57;;;3.80;99.90;;;4.39;100.00;97462.31;10362567;28;20236;-67
2024/03/23 20:08:36;;;;;;;7.77;7.17;;;3.70;99.90;;;4.29;100.00;97458.22;10360651;28;20235;-65
2024/03/23 20:13:38;;;;;;;7.10;6.40;;;3.70;99.90;;;4.17;100.00;97462.38;10364415;28;20560;-65
2024/03/23 20:18:40;;;;;;;7.90;7.03;;;3.60;99.90;;;4.07;100.00;97454.09;10372524;28;20683;-67
2024/03/23 20:23:44;;;;;;;6.20;5.70;;;3.50;99.90;;;3.97;100.00;97469.31;10374095;28;20247;-65
2024/03/23 20:28:46;;;;;;;8.53;7.73;;;3.40;99.90;;;4.07;100.00;97454.09;10371349;28;20225;-65
2024/03/23 20:33:48;;;;;;;19.00;13.23;;;3.40;99.90;;;4.03;100.00;97463.84;10385965;28;20232;-65
2024/03/23 20:38:52;;;;;;;8.63;7.57;;;3.50;99.90;;;4.20;100.00;97450.81;10386442;28;20226;-66
2024/03/23 20:43:54;;;;;;;8.33;5.93;;;3.40;99.90;;;4.02;100.00;97450.34;10371598;28;20230;-66
2024/03/23 20:48:56;;;;;;;7.07;6.37;;;3.30;99.90;;;3.90;100.00;97462.06;10369701;28;20246;-65
2024/03/23 20:53:59;;;;;;;5.10;4.63;;;3.30;99.90;;;3.93;100.00;97463.94;10385473;28;20549;-66
2024/03/23 20:59:01;;;;;;;5.00;4.50;;;3.20;99.90;;;3.75;100.00;97463.41;10380902;28;20223;-66
2024/03/23 21:04:04;;;;;;;9.23;8.33;;;3.10;99.90;;;3.75;100.00;97451.66;10385659;28;20236;-66
2024/03/23 21:09:07;;;;;;;8.47;7.80;;;3.20;99.90;;;3.82;100.00;97455.53;10385322;28;21980;-65
2024/03/23 21:14:09;;;;;;;7.47;6.70;;;3.10;99.90;;;3.67;100.00;97459.44;10375823;28;20764;-66